Weather at Shoreham Airport

Public forecast

Using degrees Celsius for public forecast. Weather courtesy of forecast.io.

Current aviation weather report (METAR) for Shoreham Airport

Report is more than 6 hours old.

Retrieved 2020/09/22 17:50 UTC (13 hours ago):

EGKA 221750Z 23010KT 9999 -RA BKN011 18/16 Q1007

Aviation forecast (TAF) for Shoreham Airport

Forecast is more than 12 hours old.

Retrieved 2016/03/02 12:00 UTC (5 years ago):

TAF EGKA 021104Z 0212/0221 25015G25KT 9999 SCT020 TEMPO 0212/0216 25025G38KT 5000 SHRA BKN012CB PROB30 TEMPO 0212/0215 2500 +SHGS +SHRASN TEMPO 0216/0221 29025G35KT TEMPO 0218/0221 BKN014